sensor_id;sensor_type;location;lat;lon;timestamp;temperature;humidity
54192;DHT22;40101;53.002;6.488;2023-05-10T00:13:00;13.10;99.90
54192;DHT22;40101;53.002;6.488;2023-05-10T00:16:41;13.10;99.90
54192;DHT22;40101;53.002;6.488;2023-05-10T00:19:19;13.10;99.90
54192;DHT22;40101;53.002;6.488;2023-05-10T00:21:44;13.10;99.90
54192;DHT22;40101;53.002;6.488;2023-05-10T00:27:40;13.10;99.90
54192;DHT22;40101;53.002;6.488;2023-05-10T00:30:14;13.10;99.90
54192;DHT22;40101;53.002;6.488;2023-05-10T00:40:35;13.10;99.90
54192;DHT22;40101;53.002;6.488;2023-05-10T00:43:38;13.00;99.90
54192;DHT22;40101;53.002;6.488;2023-05-10T00:50:07;13.10;99.90
54192;DHT22;40101;53.002;6.488;2023-05-10T00:56:14;13.10;99.90
54192;DHT22;40101;53.002;6.488;2023-05-10T00:59:16;13.10;99.90
54192;DHT22;40101;53.002;6.488;2023-05-10T01:02:07;13.00;99.90
54192;DHT22;40101;53.002;6.488;2023-05-10T01:08:37;13.00;99.90
54192;DHT22;40101;53.002;6.488;2023-05-10T01:11:13;13.00;99.90
54192;DHT22;40101;53.002;6.488;2023-05-10T01:13:55;13.00;99.90
54192;DHT22;40101;53.002;6.488;2023-05-10T01:16:50;13.00;99.90
54192;DHT22;40101;53.002;6.488;2023-05-10T01:19:42;12.90;99.90
54192;DHT22;40101;53.002;6.488;2023-05-10T01:28:39;12.90;99.90
54192;DHT22;40101;53.002;6.488;2023-05-10T01:31:58;12.90;99.90
54192;DHT22;40101;53.002;6.488;2023-05-10T01:37:52;12.90;99.90
54192;DHT22;40101;53.002;6.488;2023-05-10T01:40:39;12.90;99.90
54192;DHT22;40101;53.002;6.488;2023-05-10T01:43:19;12.90;99.90
54192;DHT22;40101;53.002;6.488;2023-05-10T01:46:07;12.90;99.90
54192;DHT22;40101;53.002;6.488;2023-05-10T01:48:47;12.90;99.90
54192;DHT22;40101;53.002;6.488;2023-05-10T01:51:41;12.90;99.90
54192;DHT22;40101;53.002;6.488;2023-05-10T01:54:21;12.80;99.90
54192;DHT22;40101;53.002;6.488;2023-05-10T02:00:22;12.90;99.90
54192;DHT22;40101;53.002;6.488;2023-05-10T02:19:44;12.90;99.90
54192;DHT22;40101;53.002;6.488;2023-05-10T02:33:07;12.80;99.90
54192;DHT22;40101;53.002;6.488;2023-05-10T03:41:30;12.60;99.90
54192;DHT22;40101;53.002;6.488;2023-05-10T03:44:01;12.60;99.90
54192;DHT22;40101;53.002;6.488;2023-05-10T03:50:14;12.60;99.90
54192;DHT22;40101;53.002;6.488;2023-05-10T04:54:08;12.50;99.90
54192;DHT22;40101;53.002;6.488;2023-05-10T04:57:24;12.50;99.90
54192;DHT22;40101;53.002;6.488;2023-05-10T06:40:08;12.90;99.90
54192;DHT22;40101;53.002;6.488;2023-05-10T06:42:45;12.90;99.90
54192;DHT22;40101;53.002;6.488;2023-05-10T06:45:14;12.90;99.90
54192;DHT22;40101;53.002;6.488;2023-05-10T06:47:40;13.00;99.90
54192;DHT22;40101;53.002;6.488;2023-05-10T06:50:20;13.00;99.90
54192;DHT22;40101;53.002;6.488;2023-05-10T07:19:46;13.30;99.90
54192;DHT22;40101;53.002;6.488;2023-05-10T07:22:12;13.30;99.90
54192;DHT22;40101;53.002;6.488;2023-05-10T07:24:38;13.40;99.90
54192;DHT22;40101;53.002;6.488;2023-05-10T07:27:12;13.40;99.90
54192;DHT22;40101;53.002;6.488;2023-05-10T07:36:38;13.50;99.90
54192;DHT22;40101;53.002;6.488;2023-05-10T07:39:32;13.40;99.90
54192;DHT22;40101;53.002;6.488;2023-05-10T08:25:59;13.40;99.90
54192;DHT22;40101;53.002;6.488;2023-05-10T08:28:28;13.40;99.90
54192;DHT22;40101;53.002;6.488;2023-05-10T08:30:57;13.40;99.90
54192;DHT22;40101;53.002;6.488;2023-05-10T08:33:23;13.50;99.90
54192;DHT22;40101;53.002;6.488;2023-05-10T08:35:50;13.50;99.90
54192;DHT22;40101;53.002;6.488;2023-05-10T08:41:30;13.50;99.90
54192;DHT22;40101;53.002;6.488;2023-05-10T08:43:57;13.60;99.90
54192;DHT22;40101;53.002;6.488;2023-05-10T08:46:26;13.60;99.90
54192;DHT22;40101;53.002;6.488;2023-05-10T08:49:09;13.60;99.90
54192;DHT22;40101;53.002;6.488;2023-05-10T08:51:44;13.70;99.90
54192;DHT22;40101;53.002;6.488;2023-05-10T08:54:13;13.80;99.90
54192;DHT22;40101;53.002;6.488;2023-05-10T08:56:39;13.90;99.90
54192;DHT22;40101;53.002;6.488;2023-05-10T08:59:04;14.00;99.90
54192;DHT22;40101;53.002;6.488;2023-05-10T09:01:31;14.00;99.90
54192;DHT22;40101;53.002;6.488;2023-05-10T09:03:58;14.10;99.90
54192;DHT22;40101;53.002;6.488;2023-05-10T09:06:28;14.30;99.90
54192;DHT22;40101;53.002;6.488;2023-05-10T09:08:54;14.40;99.90
54192;DHT22;40101;53.002;6.488;2023-05-10T09:11:23;14.50;99.90
54192;DHT22;40101;53.002;6.488;2023-05-10T09:13:51;14.50;99.90
54192;DHT22;40101;53.002;6.488;2023-05-10T09:16:17;14.50;99.90
54192;DHT22;40101;53.002;6.488;2023-05-10T09:18:43;14.40;99.90
54192;DHT22;40101;53.002;6.488;2023-05-10T09:27:39;14.30;99.90
54192;DHT22;40101;53.002;6.488;2023-05-10T09:30:35;14.30;99.90
54192;DHT22;40101;53.002;6.488;2023-05-10T09:33:43;14.30;99.90
54192;DHT22;40101;53.002;6.488;2023-05-10T09:40:07;14.30;99.90
54192;DHT22;40101;53.002;6.488;2023-05-10T09:42:36;14.30;99.90
54192;DHT22;40101;53.002;6.488;2023-05-10T09:45:06;14.40;99.90
54192;DHT22;40101;53.002;6.488;2023-05-10T09:51:07;14.50;99.90
54192;DHT22;40101;53.002;6.488;2023-05-10T09:53:39;14.50;99.90
54192;DHT22;40101;53.002;6.488;2023-05-10T09:56:12;14.50;99.90
54192;DHT22;40101;53.002;6.488;2023-05-10T09:59:03;14.50;99.90
54192;DHT22;40101;53.002;6.488;2023-05-10T10:11:40;15.00;99.90
54192;DHT22;40101;53.002;6.488;2023-05-10T10:17:50;15.30;99.90
54192;DHT22;40101;53.002;6.488;2023-05-10T10:35:19;15.90;99.90
54192;DHT22;40101;53.002;6.488;2023-05-10T10:38:04;15.70;99.90
54192;DHT22;40101;53.002;6.488;2023-05-10T10:40:36;15.60;99.90
54192;DHT22;40101;53.002;6.488;2023-05-10T10:43:25;15.50;99.90
54192;DHT22;40101;53.002;6.488;2023-05-10T10:46:16;15.40;99.90
54192;DHT22;40101;53.002;6.488;2023-05-10T10:49:10;15.40;99.90
54192;DHT22;40101;53.002;6.488;2023-05-10T10:51:37;15.40;99.90
54192;DHT22;40101;53.002;6.488;2023-05-10T10:54:11;15.50;99.90
54192;DHT22;40101;53.002;6.488;2023-05-10T10:56:37;15.50;99.90
54192;DHT22;40101;53.002;6.488;2023-05-10T10:59:02;15.60;99.90
54192;DHT22;40101;53.002;6.488;2023-05-10T11:01:33;15.60;99.90
54192;DHT22;40101;53.002;6.488;2023-05-10T11:06:33;15.70;99.90
54192;DHT22;40101;53.002;6.488;2023-05-10T11:09:04;15.70;99.90
54192;DHT22;40101;53.002;6.488;2023-05-10T11:11:31;15.80;99.90
54192;DHT22;40101;53.002;6.488;2023-05-10T11:14:06;15.90;99.90
54192;DHT22;40101;53.002;6.488;2023-05-10T11:16:42;16.00;99.90
54192;DHT22;40101;53.002;6.488;2023-05-10T11:19:16;16.10;99.90
54192;DHT22;40101;53.002;6.488;2023-05-10T11:24:31;16.00;99.90
54192;DHT22;40101;53.002;6.488;2023-05-10T11:27:01;16.00;99.90
54192;DHT22;40101;53.002;6.488;2023-05-10T11:29:31;16.00;99.90
54192;DHT22;40101;53.002;6.488;2023-05-10T11:31:59;15.90;99.90
54192;DHT22;40101;53.002;6.488;2023-05-10T11:34:29;15.80;99.90
54192;DHT22;40101;53.002;6.488;2023-05-10T11:36:57;15.70;99.90
54192;DHT22;40101;53.002;6.488;2023-05-10T11:39:27;15.50;99.90
54192;DHT22;40101;53.002;6.488;2023-05-10T11:41:53;15.40;99.90
54192;DHT22;40101;53.002;6.488;2023-05-10T11:44:18;15.40;99.90
54192;DHT22;40101;53.002;6.488;2023-05-10T11:46:44;15.30;99.90
54192;DHT22;40101;53.002;6.488;2023-05-10T11:49:10;15.20;99.90
54192;DHT22;40101;53.002;6.488;2023-05-10T11:51:36;15.20;99.90
54192;DHT22;40101;53.002;6.488;2023-05-10T11:54:06;15.20;99.90
54192;DHT22;40101;53.002;6.488;2023-05-10T11:56:39;15.20;99.90
54192;DHT22;40101;53.002;6.488;2023-05-10T11:59:05;15.20;99.90
54192;DHT22;40101;53.002;6.488;2023-05-10T12:01:32;15.10;99.90
54192;DHT22;40101;53.002;6.488;2023-05-10T12:03:59;15.10;99.90
54192;DHT22;40101;53.002;6.488;2023-05-10T12:06:27;15.20;99.90
54192;DHT22;40101;53.002;6.488;2023-05-10T12:08:54;15.20;99.90
54192;DHT22;40101;53.002;6.488;2023-05-10T12:11:20;15.20;99.90
54192;DHT22;40101;53.002;6.488;2023-05-10T12:13:47;15.20;99.90
54192;DHT22;40101;53.002;6.488;2023-05-10T12:16:17;15.20;99.90
54192;DHT22;40101;53.002;6.488;2023-05-10T12:18:43;15.20;99.90
54192;DHT22;40101;53.002;6.488;2023-05-10T12:21:12;15.30;99.90
54192;DHT22;40101;53.002;6.488;2023-05-10T12:23:39;15.30;99.90
54192;DHT22;40101;53.002;6.488;2023-05-10T12:26:05;15.30;99.90
54192;DHT22;40101;53.002;6.488;2023-05-10T12:28:32;15.30;99.90
54192;DHT22;40101;53.002;6.488;2023-05-10T12:30:59;15.40;99.90
54192;DHT22;40101;53.002;6.488;2023-05-10T12:33:25;15.40;99.90
54192;DHT22;40101;53.002;6.488;2023-05-10T12:35:52;15.50;99.90
54192;DHT22;40101;53.002;6.488;2023-05-10T12:38:29;15.50;99.90
54192;DHT22;40101;53.002;6.488;2023-05-10T12:41:04;15.60;99.90
54192;DHT22;40101;53.002;6.488;2023-05-10T12:43:30;15.70;99.90
54192;DHT22;40101;53.002;6.488;2023-05-10T12:45:56;15.70;99.90
54192;DHT22;40101;53.002;6.488;2023-05-10T12:48:22;15.70;99.90
54192;DHT22;40101;53.002;6.488;2023-05-10T12:50:51;15.70;99.90
54192;DHT22;40101;53.002;6.488;2023-05-10T12:53:17;15.70;99.90
54192;DHT22;40101;53.002;6.488;2023-05-10T12:55:43;15.50;99.90
54192;DHT22;40101;53.002;6.488;2023-05-10T12:58:10;15.50;99.90
54192;DHT22;40101;53.002;6.488;2023-05-10T13:00:36;15.40;99.90
54192;DHT22;40101;53.002;6.488;2023-05-10T13:03:04;15.30;99.90
54192;DHT22;40101;53.002;6.488;2023-05-10T13:05:34;15.30;99.90
54192;DHT22;40101;53.002;6.488;2023-05-10T13:08:03;15.20;99.90
54192;DHT22;40101;53.002;6.488;2023-05-10T13:10:30;15.20;99.90
54192;DHT22;40101;53.002;6.488;2023-05-10T13:13:00;15.20;99.90
54192;DHT22;40101;53.002;6.488;2023-05-10T13:15:26;15.10;99.90
54192;DHT22;40101;53.002;6.488;2023-05-10T13:17:53;15.20;99.90
54192;DHT22;40101;53.002;6.488;2023-05-10T13:20:19;15.20;99.90
54192;DHT22;40101;53.002;6.488;2023-05-10T13:22:45;15.20;99.90
54192;DHT22;40101;53.002;6.488;2023-05-10T13:25:11;15.30;99.90
54192;DHT22;40101;53.002;6.488;2023-05-10T13:27:39;15.40;99.90
54192;DHT22;40101;53.002;6.488;2023-05-10T13:30:07;15.70;99.90
54192;DHT22;40101;53.002;6.488;2023-05-10T13:32:33;15.80;99.90
54192;DHT22;40101;53.002;6.488;2023-05-10T13:34:59;16.00;99.90
54192;DHT22;40101;53.002;6.488;2023-05-10T13:41:15;16.20;99.90
54192;DHT22;40101;53.002;6.488;2023-05-10T13:43:41;16.40;99.90
54192;DHT22;40101;53.002;6.488;2023-05-10T13:46:07;16.40;99.90
54192;DHT22;40101;53.002;6.488;2023-05-10T13:48:39;16.40;99.90
54192;DHT22;40101;53.002;6.488;2023-05-10T13:51:08;16.50;99.90
54192;DHT22;40101;53.002;6.488;2023-05-10T13:53:41;16.60;99.90
54192;DHT22;40101;53.002;6.488;2023-05-10T13:56:13;16.60;99.90
54192;DHT22;40101;53.002;6.488;2023-05-10T13:58:39;16.50;99.90
54192;DHT22;40101;53.002;6.488;2023-05-10T14:01:05;16.40;99.90
54192;DHT22;40101;53.002;6.488;2023-05-10T14:07:16;16.20;99.90
54192;DHT22;40101;53.002;6.488;2023-05-10T14:09:44;16.00;99.90
54192;DHT22;40101;53.002;6.488;2023-05-10T14:12:10;15.90;99.90
54192;DHT22;40101;53.002;6.488;2023-05-10T14:14:36;15.80;99.90
54192;DHT22;40101;53.002;6.488;2023-05-10T14:17:02;15.80;99.90
54192;DHT22;40101;53.002;6.488;2023-05-10T14:19:28;15.80;99.90
54192;DHT22;40101;53.002;6.488;2023-05-10T14:22:04;15.80;99.90
54192;DHT22;40101;53.002;6.488;2023-05-10T14:24:31;15.80;99.90
54192;DHT22;40101;53.002;6.488;2023-05-10T14:27:07;15.80;99.90
54192;DHT22;40101;53.002;6.488;2023-05-10T14:29:52;15.80;99.90
54192;DHT22;40101;53.002;6.488;2023-05-10T14:35:45;15.90;99.90
54192;DHT22;40101;53.002;6.488;2023-05-10T14:41:58;16.10;99.90
54192;DHT22;40101;53.002;6.488;2023-05-10T14:44:24;16.00;99.90
54192;DHT22;40101;53.002;6.488;2023-05-10T14:46:51;16.10;99.90
54192;DHT22;40101;53.002;6.488;2023-05-10T14:49:33;16.20;99.90
54192;DHT22;40101;53.002;6.488;2023-05-10T14:51:59;16.30;99.90
54192;DHT22;40101;53.002;6.488;2023-05-10T14:58:56;16.50;99.90
54192;DHT22;40101;53.002;6.488;2023-05-10T15:05:08;16.70;99.90
54192;DHT22;40101;53.002;6.488;2023-05-10T15:31:58;16.90;99.90
54192;DHT22;40101;53.002;6.488;2023-05-10T15:34:23;17.00;99.90
54192;DHT22;40101;53.002;6.488;2023-05-10T15:36:49;16.90;99.90
54192;DHT22;40101;53.002;6.488;2023-05-10T15:39:15;16.90;99.90
54192;DHT22;40101;53.002;6.488;2023-05-10T15:41:41;16.90;99.90
54192;DHT22;40101;53.002;6.488;2023-05-10T15:44:08;16.90;99.90
54192;DHT22;40101;53.002;6.488;2023-05-10T15:46:36;16.80;99.90
54192;DHT22;40101;53.002;6.488;2023-05-10T15:49:03;16.80;99.90
54192;DHT22;40101;53.002;6.488;2023-05-10T15:51:29;16.80;99.90
54192;DHT22;40101;53.002;6.488;2023-05-10T15:53:54;16.80;99.90
54192;DHT22;40101;53.002;6.488;2023-05-10T15:56:29;16.80;99.90
54192;DHT22;40101;53.002;6.488;2023-05-10T15:58:55;16.70;99.90
54192;DHT22;40101;53.002;6.488;2023-05-10T16:01:21;16.60;99.90
54192;DHT22;40101;53.002;6.488;2023-05-10T16:03:46;16.60;99.90
54192;DHT22;40101;53.002;6.488;2023-05-10T16:06:12;16.50;99.90
54192;DHT22;40101;53.002;6.488;2023-05-10T16:08:38;16.40;99.90
54192;DHT22;40101;53.002;6.488;2023-05-10T16:11:06;16.40;99.90
54192;DHT22;40101;53.002;6.488;2023-05-10T16:13:36;16.40;99.90
54192;DHT22;40101;53.002;6.488;2023-05-10T16:19:07;16.30;99.90
54192;DHT22;40101;53.002;6.488;2023-05-10T16:21:33;16.20;99.90
54192;DHT22;40101;53.002;6.488;2023-05-10T16:23:59;16.20;99.90
54192;DHT22;40101;53.002;6.488;2023-05-10T16:26:25;16.10;99.90
54192;DHT22;40101;53.002;6.488;2023-05-10T16:29:09;16.10;99.90
54192;DHT22;40101;53.002;6.488;2023-05-10T16:31:35;16.10;99.90
54192;DHT22;40101;53.002;6.488;2023-05-10T16:34:01;16.00;99.90
54192;DHT22;40101;53.002;6.488;2023-05-10T16:36:33;16.00;99.90
54192;DHT22;40101;53.002;6.488;2023-05-10T16:38:59;16.00;99.90
54192;DHT22;40101;53.002;6.488;2023-05-10T16:41:25;15.90;99.90
54192;DHT22;40101;53.002;6.488;2023-05-10T16:43:55;15.80;99.90
54192;DHT22;40101;53.002;6.488;2023-05-10T16:46:25;15.80;99.90
54192;DHT22;40101;53.002;6.488;2023-05-10T16:48:51;15.70;99.90
54192;DHT22;40101;53.002;6.488;2023-05-10T16:56:43;15.60;99.90
54192;DHT22;40101;53.002;6.488;2023-05-10T16:59:48;15.50;99.90
54192;DHT22;40101;53.002;6.488;2023-05-10T17:02:24;15.50;99.90
54192;DHT22;40101;53.002;6.488;2023-05-10T17:38:35;15.40;99.90
54192;DHT22;40101;53.002;6.488;2023-05-10T17:41:02;15.50;99.90
54192;DHT22;40101;53.002;6.488;2023-05-10T17:43:28;15.40;99.90
54192;DHT22;40101;53.002;6.488;2023-05-10T17:46:05;15.40;99.90
54192;DHT22;40101;53.002;6.488;2023-05-10T17:48:39;15.30;99.90
54192;DHT22;40101;53.002;6.488;2023-05-10T17:51:24;15.30;99.90
54192;DHT22;40101;53.002;6.488;2023-05-10T17:53:53;15.30;99.90
54192;DHT22;40101;53.002;6.488;2023-05-10T17:56:19;15.20;99.90
54192;DHT22;40101;53.002;6.488;2023-05-10T17:58:46;15.20;99.90
54192;DHT22;40101;53.002;6.488;2023-05-10T18:01:19;15.20;99.90
54192;DHT22;40101;53.002;6.488;2023-05-10T18:03:48;15.20;99.90
54192;DHT22;40101;53.002;6.488;2023-05-10T18:06:25;15.20;99.90
54192;DHT22;40101;53.002;6.488;2023-05-10T18:08:51;15.20;99.90
54192;DHT22;40101;53.002;6.488;2023-05-10T18:11:35;15.10;99.90
54192;DHT22;40101;53.002;6.488;2023-05-10T18:14:07;15.10;99.90
54192;DHT22;40101;53.002;6.488;2023-05-10T18:16:39;15.10;99.90
54192;DHT22;40101;53.002;6.488;2023-05-10T18:19:05;15.10;99.90
54192;DHT22;40101;53.002;6.488;2023-05-10T18:21:30;15.10;99.90
54192;DHT22;40101;53.002;6.488;2023-05-10T18:23:57;15.10;99.90
54192;DHT22;40101;53.002;6.488;2023-05-10T18:26:23;15.00;99.90
54192;DHT22;40101;53.002;6.488;2023-05-10T18:28:48;15.10;99.90
54192;DHT22;40101;53.002;6.488;2023-05-10T18:31:23;15.00;99.90
54192;DHT22;40101;53.002;6.488;2023-05-10T18:33:49;15.10;99.90
54192;DHT22;40101;53.002;6.488;2023-05-10T18:36:14;15.00;99.90
54192;DHT22;40101;53.002;6.488;2023-05-10T18:38:41;15.00;99.90
54192;DHT22;40101;53.002;6.488;2023-05-10T18:41:16;15.00;99.90
54192;DHT22;40101;53.002;6.488;2023-05-10T18:43:52;15.00;99.90
54192;DHT22;40101;53.002;6.488;2023-05-10T18:46:18;15.00;99.90
54192;DHT22;40101;53.002;6.488;2023-05-10T18:48:57;14.90;99.90
54192;DHT22;40101;53.002;6.488;2023-05-10T18:51:26;14.90;99.90
54192;DHT22;40101;53.002;6.488;2023-05-10T18:54:21;14.90;99.90
54192;DHT22;40101;53.002;6.488;2023-05-10T18:57:00;14.90;99.90
54192;DHT22;40101;53.002;6.488;2023-05-10T18:59:35;14.80;99.90
54192;DHT22;40101;53.002;6.488;2023-05-10T19:02:33;14.80;99.90
54192;DHT22;40101;53.002;6.488;2023-05-10T19:05:04;14.80;99.90
54192;DHT22;40101;53.002;6.488;2023-05-10T19:08:02;14.70;99.90
54192;DHT22;40101;53.002;6.488;2023-05-10T19:24:43;14.20;99.90
54192;DHT22;40101;53.002;6.488;2023-05-10T19:41:43;13.80;99.90
54192;DHT22;40101;53.002;6.488;2023-05-10T19:48:25;13.70;99.90
54192;DHT22;40101;53.002;6.488;2023-05-10T19:50:58;13.60;99.90
54192;DHT22;40101;53.002;6.488;2023-05-10T19:53:28;13.60;99.90
54192;DHT22;40101;53.002;6.488;2023-05-10T19:55:54;13.50;99.90
54192;DHT22;40101;53.002;6.488;2023-05-10T19:58:23;13.50;99.90
54192;DHT22;40101;53.002;6.488;2023-05-10T20:03:31;13.40;99.90
54192;DHT22;40101;53.002;6.488;2023-05-10T20:05:58;13.30;99.90
54192;DHT22;40101;53.002;6.488;2023-05-10T20:08:24;13.20;99.90
54192;DHT22;40101;53.002;6.488;2023-05-10T20:10:56;13.20;99.90
54192;DHT22;40101;53.002;6.488;2023-05-10T20:13:23;13.20;99.90
54192;DHT22;40101;53.002;6.488;2023-05-10T20:15:49;13.10;99.90
54192;DHT22;40101;53.002;6.488;2023-05-10T20:18:19;13.20;99.90
54192;DHT22;40101;53.002;6.488;2023-05-10T20:20:45;13.10;99.90
54192;DHT22;40101;53.002;6.488;2023-05-10T20:23:11;13.10;99.90
54192;DHT22;40101;53.002;6.488;2023-05-10T20:25:37;13.10;99.90
54192;DHT22;40101;53.002;6.488;2023-05-10T20:28:28;13.10;99.90
54192;DHT22;40101;53.002;6.488;2023-05-10T20:31:38;13.10;99.90
54192;DHT22;40101;53.002;6.488;2023-05-10T20:34:08;13.00;99.90
54192;DHT22;40101;53.002;6.488;2023-05-10T20:36:43;13.00;99.90
54192;DHT22;40101;53.002;6.488;2023-05-10T20:39:09;12.90;99.90
54192;DHT22;40101;53.002;6.488;2023-05-10T20:42:10;12.90;99.90
54192;DHT22;40101;53.002;6.488;2023-05-10T20:45:09;12.90;99.90
54192;DHT22;40101;53.002;6.488;2023-05-10T20:48:03;12.90;99.90
54192;DHT22;40101;53.002;6.488;2023-05-10T20:50:58;12.80;99.90
54192;DHT22;40101;53.002;6.488;2023-05-10T20:53:43;12.90;99.90
54192;DHT22;40101;53.002;6.488;2023-05-10T21:00:31;12.90;99.90
54192;DHT22;40101;53.002;6.488;2023-05-10T21:03:15;12.90;99.90
54192;DHT22;40101;53.002;6.488;2023-05-10T21:06:00;12.90;99.90
54192;DHT22;40101;53.002;6.488;2023-05-10T21:08:29;12.90;99.90
54192;DHT22;40101;53.002;6.488;2023-05-10T21:10:55;12.90;99.90
54192;DHT22;40101;53.002;6.488;2023-05-10T21:13:21;12.90;99.90
54192;DHT22;40101;53.002;6.488;2023-05-10T21:15:49;12.90;99.90
54192;DHT22;40101;53.002;6.488;2023-05-10T21:20:54;13.00;99.90
54192;DHT22;40101;53.002;6.488;2023-05-10T21:23:20;13.00;99.90
54192;DHT22;40101;53.002;6.488;2023-05-10T21:25:54;13.00;99.90
54192;DHT22;40101;53.002;6.488;2023-05-10T21:28:50;13.00;99.90
54192;DHT22;40101;53.002;6.488;2023-05-10T21:31:38;13.00;99.90
54192;DHT22;40101;53.002;6.488;2023-05-10T21:34:40;13.00;99.90
54192;DHT22;40101;53.002;6.488;2023-05-10T21:37:06;13.00;99.90
54192;DHT22;40101;53.002;6.488;2023-05-10T21:39:45;13.00;99.90
54192;DHT22;40101;53.002;6.488;2023-05-10T21:42:37;13.00;99.90
54192;DHT22;40101;53.002;6.488;2023-05-10T21:45:24;13.00;99.90
54192;DHT22;40101;53.002;6.488;2023-05-10T21:48:08;13.00;99.90
54192;DHT22;40101;53.002;6.488;2023-05-10T21:50:37;13.00;99.90
54192;DHT22;40101;53.002;6.488;2023-05-10T21:53:02;13.00;99.90
54192;DHT22;40101;53.002;6.488;2023-05-10T21:55:28;13.00;99.90
54192;DHT22;40101;53.002;6.488;2023-05-10T21:57:54;13.00;99.90
54192;DHT22;40101;53.002;6.488;2023-05-10T22:00:20;13.00;99.90
54192;DHT22;40101;53.002;6.488;2023-05-10T22:02:46;13.00;99.90
54192;DHT22;40101;53.002;6.488;2023-05-10T22:05:12;13.00;99.90
54192;DHT22;40101;53.002;6.488;2023-05-10T22:07:38;13.00;99.90
54192;DHT22;40101;53.002;6.488;2023-05-10T22:10:04;13.00;99.90
54192;DHT22;40101;53.002;6.488;2023-05-10T22:12:31;13.00;99.90
54192;DHT22;40101;53.002;6.488;2023-05-10T22:14:59;12.90;99.90
54192;DHT22;40101;53.002;6.488;2023-05-10T22:17:28;12.90;99.90
54192;DHT22;40101;53.002;6.488;2023-05-10T22:19:54;12.90;99.90
54192;DHT22;40101;53.002;6.488;2023-05-10T22:22:21;12.90;99.90
54192;DHT22;40101;53.002;6.488;2023-05-10T22:24:47;12.90;99.90
54192;DHT22;40101;53.002;6.488;2023-05-10T22:27:13;12.90;99.90
54192;DHT22;40101;53.002;6.488;2023-05-10T22:29:39;12.90;99.90
54192;DHT22;40101;53.002;6.488;2023-05-10T22:32:14;12.90;99.90
54192;DHT22;40101;53.002;6.488;2023-05-10T22:34:49;12.90;99.90
54192;DHT22;40101;53.002;6.488;2023-05-10T22:37:17;12.80;99.90
54192;DHT22;40101;53.002;6.488;2023-05-10T22:39:47;12.80;99.90
54192;DHT22;40101;53.002;6.488;2023-05-10T22:42:14;12.80;99.90
54192;DHT22;40101;53.002;6.488;2023-05-10T22:44:41;12.70;99.90
54192;DHT22;40101;53.002;6.488;2023-05-10T22:47:07;12.70;99.90
54192;DHT22;40101;53.002;6.488;2023-05-10T22:49:41;12.70;99.90
54192;DHT22;40101;53.002;6.488;2023-05-10T22:52:07;12.70;99.90
54192;DHT22;40101;53.002;6.488;2023-05-10T22:54:33;12.70;99.90
54192;DHT22;40101;53.002;6.488;2023-05-10T22:57:12;12.80;99.90
54192;DHT22;40101;53.002;6.488;2023-05-10T22:59:44;12.80;99.90
54192;DHT22;40101;53.002;6.488;2023-05-10T23:02:10;12.70;99.90
54192;DHT22;40101;53.002;6.488;2023-05-10T23:04:42;12.70;99.90
54192;DHT22;40101;53.002;6.488;2023-05-10T23:07:36;12.70;99.90
54192;DHT22;40101;53.002;6.488;2023-05-10T23:10:07;12.70;99.90
54192;DHT22;40101;53.002;6.488;2023-05-10T23:12:33;12.70;99.90
54192;DHT22;40101;53.002;6.488;2023-05-10T23:15:01;12.70;99.90
54192;DHT22;40101;53.002;6.488;2023-05-10T23:17:27;12.70;99.90
54192;DHT22;40101;53.002;6.488;2023-05-10T23:19:53;12.60;99.90
54192;DHT22;40101;53.002;6.488;2023-05-10T23:22:18;12.60;99.90
54192;DHT22;40101;53.002;6.488;2023-05-10T23:24:44;12.60;99.90
54192;DHT22;40101;53.002;6.488;2023-05-10T23:27:10;12.60;99.90
54192;DHT22;40101;53.002;6.488;2023-05-10T23:29:36;12.60;99.90
54192;DHT22;40101;53.002;6.488;2023-05-10T23:32:05;12.60;99.90
54192;DHT22;40101;53.002;6.488;2023-05-10T23:34:34;12.60;99.90
54192;DHT22;40101;53.002;6.488;2023-05-10T23:37:00;12.60;99.90
54192;DHT22;40101;53.002;6.488;2023-05-10T23:39:26;12.50;99.90
54192;DHT22;40101;53.002;6.488;2023-05-10T23:41:51;12.60;99.90
54192;DHT22;40101;53.002;6.488;2023-05-10T23:44:17;12.50;99.90
54192;DHT22;40101;53.002;6.488;2023-05-10T23:46:43;12.50;99.90
54192;DHT22;40101;53.002;6.488;2023-05-10T23:49:09;12.50;99.90
54192;DHT22;40101;53.002;6.488;2023-05-10T23:51:34;12.50;99.90
54192;DHT22;40101;53.002;6.488;2023-05-10T23:54:01;12.50;99.90
54192;DHT22;40101;53.002;6.488;2023-05-10T23:56:26;12.50;99.90
54192;DHT22;40101;53.002;6.488;2023-05-10T23:58:52;12.50;99.90
